Sheldon, IA

6:17 PM CST on February 24, 2017 (GMT -0600)
Sheldon Municipal

Weather History for KSHL - June, 2013

Change the Weather History Date:

Saturday, June 29, 2013

  Actual Average Record
Temperature  
Mean Temperature 69 °F -  
Max Temperature 78 °F 82 °F 98 °F (1970)
Min Temperature 60 °F 60 °F 45 °F (1959)
Cooling Degree Days 4    
Growing Degree Days 19 (Base 50)    
Moisture  
Dew Point 55 °F    
Average Humidity 61    
Maximum Humidity 83    
Minimum Humidity 34    
Precipitation  
Precipitation 0.00 in - - ()
Sea Level Pressure  
Sea Level Pressure 29.92 in    
Wind  
Wind Speed 13 mph (North)    
Max Wind Speed 29 mph    
Max Gust Speed 37 mph    
Visibility 10 miles    
Events Rain    
Averages and records for this station are not official NWS values.
T = Trace of Precipitation, MM = Missing Value Source: NWS Daily Summary

Daily Weather History Graph

Daily Weather History Graph

Search for Another Location

Airport or City:

Trip Planner

Search our weather history database for the weather conditions in past years. The results will help you decide how hot, cold, wet, or windy it might be!

Date:

Astronomy

Jun. 29, 2013 Rise Set
Actual Time 5:46 AM CDT 9:07 PM CDT
Civil Twilight 5:10 AM CDT 9:42 PM CDT
Nautical Twilight 4:24 AM CDT 10:28 PM CDT
Astronomical Twilight 3:27 AM CDT 11:25 PM CDT
Moon 12:25 AM CDT (6/29) 1:11 PM CDT (6/29)
Length of Visible Light 16h 31m
Length of Day
15h 20m
Waning Gibbous, 55% of the Moon is Illuminated
Jun 29
Waning Gibbous
Jun 29
Last Quarter
Jul 8
New
Jul 15
First Quarter
Jul 22
Full

Hourly Weather History & Observations

Time (CDT) Temp. Dew Point Humidity Pressure Visibility Wind Dir Wind Speed Gust Speed Precip Events Conditions
12:15 AM 64.4 °F 55.4 °F 73% 29.89 in 10.0 mi NW 8.1 mph - N/A   Clear
12:35 AM 66.2 °F 55.4 °F 68% 29.89 in 10.0 mi NW 8.1 mph - N/A   Unknown
12:55 AM 66.2 °F 55.4 °F 68% 29.89 in 10.0 mi NW 9.2 mph - N/A   Unknown
1:15 AM 66.2 °F 55.4 °F 68% 29.88 in 10.0 mi NW 8.1 mph - N/A   Unknown
1:35 AM 64.4 °F 55.4 °F 73% 29.88 in 10.0 mi NW 9.2 mph - N/A   Unknown
1:55 AM 64.4 °F 55.4 °F 73% 29.88 in 10.0 mi NW 8.1 mph - N/A   Clear
2:15 AM 64.4 °F 55.4 °F 73% 29.88 in 10.0 mi NW 6.9 mph - N/A   Clear
2:35 AM 64.4 °F 55.4 °F 73% 29.88 in 10.0 mi NW 8.1 mph - N/A   Clear
2:55 AM 64.4 °F 55.4 °F 73% 29.88 in 10.0 mi NW 9.2 mph - N/A   Clear
3:15 AM 64.4 °F 55.4 °F 73% 29.88 in 10.0 mi NW 8.1 mph - N/A   Clear
3:35 AM 64.4 °F 57.2 °F 77% 29.88 in 10.0 mi NW 9.2 mph - N/A   Clear
3:55 AM 62.6 °F 57.2 °F 82% 29.88 in 10.0 mi WNW 8.1 mph - N/A   Clear
4:15 AM 62.6 °F 57.2 °F 82% 29.89 in 10.0 mi NW 8.1 mph - N/A   Clear
4:35 AM 62.6 °F 57.2 °F 82% 29.89 in 10.0 mi NW 9.2 mph - N/A   Clear
4:55 AM 62.6 °F 57.2 °F 82% 29.88 in 10.0 mi NW 10.4 mph - N/A   Unknown
5:15 AM 62.6 °F 57.2 °F 82% 29.89 in 10.0 mi NW 10.4 mph - N/A   Unknown
5:35 AM 62.6 °F 57.2 °F 82% 29.89 in 10.0 mi NW 11.5 mph - N/A   Unknown
5:55 AM 62.6 °F 57.2 °F 82% 29.90 in 10.0 mi NW 11.5 mph - N/A   Clear
6:15 AM 62.6 °F 57.2 °F 82% 29.89 in 10.0 mi NW 11.5 mph - N/A   Clear
6:35 AM 62.6 °F 57.2 °F 82% 29.89 in 10.0 mi NW 13.8 mph - N/A   Clear
6:55 AM 64.4 °F 59.0 °F 83% 29.89 in 10.0 mi NW 13.8 mph 19.6 mph N/A   Clear
7:15 AM 64.4 °F 57.2 °F 77% 29.90 in 10.0 mi NNW 18.4 mph 24.2 mph N/A   Clear
7:35 AM 66.2 °F 59.0 °F 78% 29.90 in 10.0 mi NNW 19.6 mph - N/A   Clear
7:55 AM 66.2 °F 59.0 °F 78% 29.90 in 10.0 mi NNW 18.4 mph - N/A   Clear
8:15 AM 68.0 °F 59.0 °F 73% 29.90 in 10.0 mi NNW 21.9 mph - N/A   Clear
8:35 AM 68.0 °F 59.0 °F 73% 29.90 in 10.0 mi NNW 24.2 mph 31.1 mph N/A   Clear
8:55 AM 69.8 °F 59.0 °F 68% 29.90 in 10.0 mi NNW 24.2 mph 32.2 mph N/A   Scattered Clouds
9:15 AM 69.8 °F 59.0 °F 68% 29.90 in 10.0 mi NNW 25.3 mph 33.4 mph N/A   Mostly Cloudy
9:35 AM 69.8 °F 59.0 °F 68% 29.91 in 10.0 mi NNW 28.8 mph 36.8 mph N/A   Mostly Cloudy
9:55 AM 69.8 °F 57.2 °F 64% 29.91 in 10.0 mi North 27.6 mph 35.7 mph N/A   Overcast
10:15 AM 71.6 °F 57.2 °F 60% 29.91 in 10.0 mi North 25.3 mph 33.4 mph N/A   Mostly Cloudy
10:35 AM 69.8 °F 57.2 °F 64% 29.92 in 10.0 mi North 24.2 mph 35.7 mph N/A   Overcast
10:55 AM 71.6 °F 59.0 °F 64% 29.92 in 10.0 mi NNW 21.9 mph 29.9 mph N/A   Mostly Cloudy
11:15 AM 71.6 °F 57.2 °F 60% 29.92 in 10.0 mi North 23.0 mph 34.5 mph N/A   Mostly Cloudy
11:35 AM 73.4 °F 57.2 °F 57% 29.92 in 10.0 mi North 24.2 mph 35.7 mph N/A   Overcast
11:55 AM 71.6 °F 57.2 °F 60% 29.92 in 10.0 mi North 26.5 mph 33.4 mph N/A   Overcast
12:15 PM 71.6 °F 59.0 °F 64% 29.93 in 10.0 mi North 27.6 mph 35.7 mph N/A   Mostly Cloudy
12:35 PM 68.0 °F 57.2 °F 68% 29.94 in 10.0 mi North 20.7 mph 28.8 mph N/A Rain Light Rain
12:55 PM 71.6 °F 59.0 °F 64% 29.94 in 10.0 mi North 20.7 mph - N/A   Mostly Cloudy
1:15 PM 73.4 °F 59.0 °F 61% 29.94 in 10.0 mi NNW 20.7 mph 26.5 mph N/A   Scattered Clouds
1:35 PM 75.2 °F 55.4 °F 50% 29.93 in 10.0 mi NNE 20.7 mph - N/A   Scattered Clouds
1:55 PM 75.2 °F 55.4 °F 50% 29.93 in 10.0 mi NNE 21.9 mph - N/A   Mostly Cloudy
2:15 PM 75.2 °F 51.8 °F 44% 29.93 in 10.0 mi NNE 19.6 mph 28.8 mph N/A   Mostly Cloudy
2:35 PM 75.2 °F 51.8 °F 44% 29.94 in 10.0 mi North 23.0 mph 29.9 mph N/A   Mostly Cloudy
2:55 PM 73.4 °F 51.8 °F 47% 29.94 in 10.0 mi NNE 18.4 mph 25.3 mph N/A   Overcast
3:15 PM 75.2 °F 53.6 °F 47% 29.94 in 10.0 mi NNE 17.3 mph - N/A   Mostly Cloudy
3:35 PM 77.0 °F 53.6 °F 44% 29.94 in 10.0 mi North 15.0 mph 21.9 mph N/A   Mostly Cloudy
3:55 PM 77.0 °F 53.6 °F 44% 29.93 in 10.0 mi North 21.9 mph - N/A   Mostly Cloudy
4:15 PM 78.8 °F 48.2 °F 34% 29.93 in 10.0 mi North 15.0 mph 28.8 mph N/A   Scattered Clouds
4:35 PM 78.8 °F 50.0 °F 36% 29.93 in 10.0 mi North 20.7 mph - N/A   Scattered Clouds
4:55 PM 78.8 °F 50.0 °F 36% 29.93 in 10.0 mi North 16.1 mph 24.2 mph N/A   Partly Cloudy
5:15 PM 78.8 °F 50.0 °F 36% 29.93 in 10.0 mi North 19.6 mph - N/A   Partly Cloudy
5:35 PM 78.8 °F 50.0 °F 36% 29.92 in 10.0 mi North 20.7 mph 26.5 mph N/A   Partly Cloudy
5:55 PM 78.8 °F 50.0 °F 36% 29.92 in 10.0 mi North 17.3 mph 23.0 mph N/A   Clear
6:15 PM 78.8 °F 51.8 °F 39% 29.92 in 10.0 mi North 15.0 mph - N/A   Mostly Cloudy
6:35 PM 77.0 °F 50.0 °F 39% 29.92 in 10.0 mi North 17.3 mph 24.2 mph N/A   Scattered Clouds
6:55 PM 77.0 °F 50.0 °F 39% 29.92 in 10.0 mi North 13.8 mph 23.0 mph N/A   Mostly Cloudy
7:15 PM 77.0 °F 51.8 °F 41% 29.93 in 10.0 mi NNE 15.0 mph 23.0 mph N/A   Mostly Cloudy
7:35 PM 77.0 °F 51.8 °F 41% 29.93 in 10.0 mi North 17.3 mph - N/A   Partly Cloudy
7:55 PM 75.2 °F 51.8 °F 44% 29.94 in 10.0 mi NNE 13.8 mph 21.9 mph N/A   Partly Cloudy
8:15 PM 75.2 °F 51.8 °F 44% 29.94 in 10.0 mi NNE 11.5 mph 18.4 mph N/A   Scattered Clouds
8:35 PM 73.4 °F 51.8 °F 47% 29.95 in 10.0 mi NNE 10.4 mph 18.4 mph N/A   Partly Cloudy
8:55 PM 73.4 °F 50.0 °F 44% 29.95 in 10.0 mi NNE 11.5 mph - N/A   Clear
9:15 PM 71.6 °F 50.0 °F 46% 29.96 in 10.0 mi NNE 9.2 mph 15.0 mph N/A   Clear
9:35 PM 69.8 °F 50.0 °F 49% 29.96 in 9.0 mi NNE 9.2 mph - N/A   Clear
9:55 PM 68.0 °F 50.0 °F 52% 29.96 in 10.0 mi NNE 8.1 mph - N/A   Partly Cloudy
10:15 PM 64.4 °F 50.0 °F 59% 29.97 in 10.0 mi North 6.9 mph - N/A   Partly Cloudy
10:35 PM 62.6 °F 50.0 °F 63% 29.97 in 10.0 mi NNE 6.9 mph - N/A   Scattered Clouds
10:55 PM 60.8 °F 50.0 °F 68% 29.98 in 10.0 mi North 8.1 mph - N/A   Mostly Cloudy
11:15 PM 62.6 °F 50.0 °F 63% 29.98 in 10.0 mi NNE 8.1 mph - N/A   Mostly Cloudy
11:35 PM 60.8 °F 51.8 °F 72% 29.99 in 10.0 mi North 6.9 mph - N/A   Overcast
11:55 PM 60.8 °F 51.8 °F 72% 29.99 in 10.0 mi NNE 4.6 mph - N/A   Overcast